San Antonio, Texas
Traffic Map
Current Weather Conditions
San Antonio, Texas
Clear
Clear
26°
Feels Like: 28°
Wind Chill: 26° Ceiling: Unl
Heat Index: 28° Visibility: 10mi
Dew Point: 22° Wind: 8mph
Humidity: 77% Direction: 140° (SE)
Pressure: 30in Gusts: 0mph
Raw Report DataKSKF 260658Z AUTO 14007KT 10SM CLR 26/22 A3000 RMK AO2 SLP150 T02610218 $
Traffic Incident Summary
Active as of:
Severity:
Category:
InformationThere was an issue retrieving the traffic information for this location. Please try a different location or try again shortly.
Advertisements
Track Severe Weather on mobile